sensor_id;sensor_type;location;lat;lon;timestamp;temperature;humidity
3310;DHT22;1667;53.238;10.394;2022-09-17T00:04:14;19.90;93.00
3310;DHT22;1667;53.238;10.394;2022-09-17T00:09:12;19.90;93.00
3310;DHT22;1667;53.238;10.394;2022-09-17T00:14:14;19.90;93.00
3310;DHT22;1667;53.238;10.394;2022-09-17T00:19:16;19.90;93.00
3310;DHT22;1667;53.238;10.394;2022-09-17T00:24:16;19.80;93.00
3310;DHT22;1667;53.238;10.394;2022-09-17T00:29:14;19.80;93.00
3310;DHT22;1667;53.238;10.394;2022-09-17T00:34:13;19.80;93.00
3310;DHT22;1667;53.238;10.394;2022-09-17T00:39:12;19.80;93.00
3310;DHT22;1667;53.238;10.394;2022-09-17T00:44:41;19.80;93.00
3310;DHT22;1667;53.238;10.394;2022-09-17T00:49:41;19.80;93.00
3310;DHT22;1667;53.238;10.394;2022-09-17T00:54:43;19.80;93.00
3310;DHT22;1667;53.238;10.394;2022-09-17T00:59:43;19.80;93.10
3310;DHT22;1667;53.238;10.394;2022-09-17T01:04:42;19.80;93.00
3310;DHT22;1667;53.238;10.394;2022-09-17T01:09:48;19.80;93.10
3310;DHT22;1667;53.238;10.394;2022-09-17T01:14:59;19.80;93.00
3310;DHT22;1667;53.238;10.394;2022-09-17T01:20:31;19.80;93.00
3310;DHT22;1667;53.238;10.394;2022-09-17T01:25:40;19.80;93.00
3310;DHT22;1667;53.238;10.394;2022-09-17T01:31:03;19.80;93.00
3310;DHT22;1667;53.238;10.394;2022-09-17T01:36:27;19.80;93.00
3310;DHT22;1667;53.238;10.394;2022-09-17T01:41:31;19.70;93.40
3310;DHT22;1667;53.238;10.394;2022-09-17T01:46:37;19.70;93.00
3310;DHT22;1667;53.238;10.394;2022-09-17T01:51:39;19.70;93.00
3310;DHT22;1667;53.238;10.394;2022-09-17T01:56:42;19.70;93.00
3310;DHT22;1667;53.238;10.394;2022-09-17T02:01:48;19.70;93.00
3310;DHT22;1667;53.238;10.394;2022-09-17T02:06:52;19.70;93.00
3310;DHT22;1667;53.238;10.394;2022-09-17T02:11:57;19.70;93.00
3310;DHT22;1667;53.238;10.394;2022-09-17T02:17:02;19.60;93.00
3310;DHT22;1667;53.238;10.394;2022-09-17T02:22:08;19.70;93.00
3310;DHT22;1667;53.238;10.394;2022-09-17T02:27:16;19.60;93.00
3310;DHT22;1667;53.238;10.394;2022-09-17T02:32:17;19.60;93.00
3310;DHT22;1667;53.238;10.394;2022-09-17T02:37:15;19.60;93.00
3310;DHT22;1667;53.238;10.394;2022-09-17T02:42:19;19.60;93.00
3310;DHT22;1667;53.238;10.394;2022-09-17T02:47:51;19.60;93.00
3310;DHT22;1667;53.238;10.394;2022-09-17T02:53:03;19.60;93.00
3310;DHT22;1667;53.238;10.394;2022-09-17T02:58:11;19.60;93.00
3310;DHT22;1667;53.238;10.394;2022-09-17T03:03:16;19.60;93.00
3310;DHT22;1667;53.238;10.394;2022-09-17T03:08:16;19.60;93.00
3310;DHT22;1667;53.238;10.394;2022-09-17T03:13:16;19.60;92.90
3310;DHT22;1667;53.238;10.394;2022-09-17T03:18:15;19.60;92.90
3310;DHT22;1667;53.238;10.394;2022-09-17T03:23:13;19.60;92.90
3310;DHT22;1667;53.238;10.394;2022-09-17T03:28:12;19.60;92.90
3310;DHT22;1667;53.238;10.394;2022-09-17T03:33:10;19.60;93.00
3310;DHT22;1667;53.238;10.394;2022-09-17T03:38:09;19.50;93.00
3310;DHT22;1667;53.238;10.394;2022-09-17T03:43:08;19.50;93.00
3310;DHT22;1667;53.238;10.394;2022-09-17T03:48:06;19.50;93.00
3310;DHT22;1667;53.238;10.394;2022-09-17T03:53:04;19.50;92.90
3310;DHT22;1667;53.238;10.394;2022-09-17T03:58:04;19.50;92.90
3310;DHT22;1667;53.238;10.394;2022-09-17T04:03:02;19.50;92.80
3310;DHT22;1667;53.238;10.394;2022-09-17T04:08:01;19.50;92.80
3310;DHT22;1667;53.238;10.394;2022-09-17T04:12:59;19.50;92.80
3310;DHT22;1667;53.238;10.394;2022-09-17T04:17:59;19.50;92.80
3310;DHT22;1667;53.238;10.394;2022-09-17T04:22:57;19.50;92.80
3310;DHT22;1667;53.238;10.394;2022-09-17T04:27:55;19.40;92.80
3310;DHT22;1667;53.238;10.394;2022-09-17T04:32:53;19.50;92.80
3310;DHT22;1667;53.238;10.394;2022-09-17T04:37:53;19.40;92.80
3310;DHT22;1667;53.238;10.394;2022-09-17T04:42:52;19.40;92.80
3310;DHT22;1667;53.238;10.394;2022-09-17T04:47:50;19.50;92.80
3310;DHT22;1667;53.238;10.394;2022-09-17T04:52:48;19.50;92.80
3310;DHT22;1667;53.238;10.394;2022-09-17T04:57:50;19.40;92.70
3310;DHT22;1667;53.238;10.394;2022-09-17T05:02:50;19.40;92.70
3310;DHT22;1667;53.238;10.394;2022-09-17T05:07:48;19.40;92.70
3310;DHT22;1667;53.238;10.394;2022-09-17T05:12:49;19.40;92.80
3310;DHT22;1667;53.238;10.394;2022-09-17T05:17:47;19.40;92.80
3310;DHT22;1667;53.238;10.394;2022-09-17T05:22:46;19.40;92.80
3310;DHT22;1667;53.238;10.394;2022-09-17T05:27:44;19.40;92.80
3310;DHT22;1667;53.238;10.394;2022-09-17T05:32:44;19.40;92.80
3310;DHT22;1667;53.238;10.394;2022-09-17T05:37:43;19.40;92.80
3310;DHT22;1667;53.238;10.394;2022-09-17T05:42:41;19.40;93.20
3310;DHT22;1667;53.238;10.394;2022-09-17T05:47:39;19.40;92.80
3310;DHT22;1667;53.238;10.394;2022-09-17T05:52:39;19.40;92.80
3310;DHT22;1667;53.238;10.394;2022-09-17T05:57:37;19.40;92.90
3310;DHT22;1667;53.238;10.394;2022-09-17T06:02:35;19.40;92.90
3310;DHT22;1667;53.238;10.394;2022-09-17T06:07:34;19.40;92.90
3310;DHT22;1667;53.238;10.394;2022-09-17T06:12:34;19.40;93.00
3310;DHT22;1667;53.238;10.394;2022-09-17T06:17:32;19.40;93.00
3310;DHT22;1667;53.238;10.394;2022-09-17T06:22:31;19.40;93.00
3310;DHT22;1667;53.238;10.394;2022-09-17T06:27:30;19.40;93.00
3310;DHT22;1667;53.238;10.394;2022-09-17T06:32:31;19.40;93.00
3310;DHT22;1667;53.238;10.394;2022-09-17T06:37:30;19.40;93.10
3310;DHT22;1667;53.238;10.394;2022-09-17T06:42:29;19.30;93.10
3310;DHT22;1667;53.238;10.394;2022-09-17T06:47:27;19.40;93.30
3310;DHT22;1667;53.238;10.394;2022-09-17T06:52:26;19.30;93.30
3310;DHT22;1667;53.238;10.394;2022-09-17T06:57:24;19.40;93.30
3310;DHT22;1667;53.238;10.394;2022-09-17T07:02:23;19.40;93.40
3310;DHT22;1667;53.238;10.394;2022-09-17T07:07:21;19.40;94.00
3310;DHT22;1667;53.238;10.394;2022-09-17T07:12:21;19.40;93.50
3310;DHT22;1667;53.238;10.394;2022-09-17T07:17:19;19.40;93.50
3310;DHT22;1667;53.238;10.394;2022-09-17T07:22:17;19.40;93.50
3310;DHT22;1667;53.238;10.394;2022-09-17T07:27:15;19.40;93.50
3310;DHT22;1667;53.238;10.394;2022-09-17T07:32:15;19.40;93.40
3310;DHT22;1667;53.238;10.394;2022-09-17T07:37:13;19.40;93.40
3310;DHT22;1667;53.238;10.394;2022-09-17T07:42:11;19.40;93.40
3310;DHT22;1667;53.238;10.394;2022-09-17T07:47:10;19.40;93.40
3310;DHT22;1667;53.238;10.394;2022-09-17T07:52:09;19.40;93.40
3310;DHT22;1667;53.238;10.394;2022-09-17T07:57:07;19.40;93.40
3310;DHT22;1667;53.238;10.394;2022-09-17T08:02:10;19.40;93.50
3310;DHT22;1667;53.238;10.394;2022-09-17T08:07:11;19.40;93.40
3310;DHT22;1667;53.238;10.394;2022-09-17T08:12:09;19.40;93.40
3310;DHT22;1667;53.238;10.394;2022-09-17T08:17:07;19.50;93.40
3310;DHT22;1667;53.238;10.394;2022-09-17T08:22:06;19.50;93.50
3310;DHT22;1667;53.238;10.394;2022-09-17T08:27:05;19.50;93.50
3310;DHT22;1667;53.238;10.394;2022-09-17T08:32:03;19.50;93.60
3310;DHT22;1667;53.238;10.394;2022-09-17T08:37:01;19.50;93.50
3310;DHT22;1667;53.238;10.394;2022-09-17T08:42:06;19.60;93.60
3310;DHT22;1667;53.238;10.394;2022-09-17T08:47:13;19.60;93.60
3310;DHT22;1667;53.238;10.394;2022-09-17T08:52:51;19.60;93.70
3310;DHT22;1667;53.238;10.394;2022-09-17T08:58:09;19.60;93.80
3310;DHT22;1667;53.238;10.394;2022-09-17T09:03:20;19.60;93.90
3310;DHT22;1667;53.238;10.394;2022-09-17T09:08:29;19.70;94.00
3310;DHT22;1667;53.238;10.394;2022-09-17T09:13:33;19.60;94.10
3310;DHT22;1667;53.238;10.394;2022-09-17T09:18:35;19.60;94.10
3310;DHT22;1667;53.238;10.394;2022-09-17T09:23:43;19.60;94.10
3310;DHT22;1667;53.238;10.394;2022-09-17T09:29:03;19.60;94.00
3310;DHT22;1667;53.238;10.394;2022-09-17T09:34:03;19.60;94.10
3310;DHT22;1667;53.238;10.394;2022-09-17T09:39:05;19.50;94.10
3310;DHT22;1667;53.238;10.394;2022-09-17T09:44:11;19.50;94.10
3310;DHT22;1667;53.238;10.394;2022-09-17T09:49:21;19.60;94.10
3310;DHT22;1667;53.238;10.394;2022-09-17T09:54:43;19.60;94.10
3310;DHT22;1667;53.238;10.394;2022-09-17T09:59:46;19.60;94.10
3310;DHT22;1667;53.238;10.394;2022-09-17T10:04:44;19.60;94.00
3310;DHT22;1667;53.238;10.394;2022-09-17T10:09:48;19.70;93.90
3310;DHT22;1667;53.238;10.394;2022-09-17T10:15:23;19.70;93.90
3310;DHT22;1667;53.238;10.394;2022-09-17T10:20:21;19.70;93.80
3310;DHT22;1667;53.238;10.394;2022-09-17T10:25:28;19.80;93.80
3310;DHT22;1667;53.238;10.394;2022-09-17T10:30:28;19.80;93.80
3310;DHT22;1667;53.238;10.394;2022-09-17T10:35:28;19.80;93.70
3310;DHT22;1667;53.238;10.394;2022-09-17T10:40:28;19.80;93.60
3310;DHT22;1667;53.238;10.394;2022-09-17T10:45:30;19.80;93.60
3310;DHT22;1667;53.238;10.394;2022-09-17T10:50:30;19.80;93.60
3310;DHT22;1667;53.238;10.394;2022-09-17T10:55:29;19.80;93.50
3310;DHT22;1667;53.238;10.394;2022-09-17T11:00:37;19.90;93.50
3310;DHT22;1667;53.238;10.394;2022-09-17T11:05:48;19.90;93.50
3310;DHT22;1667;53.238;10.394;2022-09-17T11:10:53;19.90;93.50
3310;DHT22;1667;53.238;10.394;2022-09-17T11:16:11;19.90;93.40
3310;DHT22;1667;53.238;10.394;2022-09-17T11:21:31;19.90;93.30
3310;DHT22;1667;53.238;10.394;2022-09-17T11:26:36;20.00;93.30
3310;DHT22;1667;53.238;10.394;2022-09-17T11:31:45;20.00;93.30
3310;DHT22;1667;53.238;10.394;2022-09-17T11:36:50;20.00;93.20
3310;DHT22;1667;53.238;10.394;2022-09-17T11:41:52;20.00;93.10
3310;DHT22;1667;53.238;10.394;2022-09-17T11:46:56;20.10;93.10
3310;DHT22;1667;53.238;10.394;2022-09-17T11:51:58;20.10;93.10
3310;DHT22;1667;53.238;10.394;2022-09-17T11:57:05;20.10;93.10
3310;DHT22;1667;53.238;10.394;2022-09-17T12:02:15;20.10;93.00
3310;DHT22;1667;53.238;10.394;2022-09-17T12:07:26;20.10;93.00
3310;DHT22;1667;53.238;10.394;2022-09-17T12:12:26;20.10;93.00
3310;DHT22;1667;53.238;10.394;2022-09-17T12:17:53;20.10;92.90
3310;DHT22;1667;53.238;10.394;2022-09-17T12:23:16;20.10;92.90
3310;DHT22;1667;53.238;10.394;2022-09-17T12:28:20;20.10;92.90
3310;DHT22;1667;53.238;10.394;2022-09-17T12:33:26;20.10;92.90
3310;DHT22;1667;53.238;10.394;2022-09-17T12:38:47;20.10;92.90
3310;DHT22;1667;53.238;10.394;2022-09-17T12:43:59;20.10;92.90
3310;DHT22;1667;53.238;10.394;2022-09-17T12:49:29;20.20;92.90
3310;DHT22;1667;53.238;10.394;2022-09-17T12:54:45;20.10;92.90
3310;DHT22;1667;53.238;10.394;2022-09-17T12:59:50;20.10;92.90
3310;DHT22;1667;53.238;10.394;2022-09-17T13:05:20;20.10;92.90
3310;DHT22;1667;53.238;10.394;2022-09-17T13:10:40;20.10;92.90
3310;DHT22;1667;53.238;10.394;2022-09-17T13:15:51;20.10;92.90
3310;DHT22;1667;53.238;10.394;2022-09-17T13:21:02;20.10;93.00
3310;DHT22;1667;53.238;10.394;2022-09-17T13:26:02;20.10;93.00
3310;DHT22;1667;53.238;10.394;2022-09-17T13:31:02;20.10;93.00
3310;DHT22;1667;53.238;10.394;2022-09-17T13:36:02;20.10;93.00
3310;DHT22;1667;53.238;10.394;2022-09-17T13:41:16;20.10;92.90
3310;DHT22;1667;53.238;10.394;2022-09-17T13:46:20;20.10;93.00
3310;DHT22;1667;53.238;10.394;2022-09-17T13:57:08;20.10;93.00
3310;DHT22;1667;53.238;10.394;2022-09-17T14:02:34;20.20;93.00
3310;DHT22;1667;53.238;10.394;2022-09-17T14:07:45;20.20;93.00
3310;DHT22;1667;53.238;10.394;2022-09-17T14:18:33;20.20;93.00
3310;DHT22;1667;53.238;10.394;2022-09-17T14:23:32;20.20;93.00
3310;DHT22;1667;53.238;10.394;2022-09-17T14:28:38;20.20;93.00
3310;DHT22;1667;53.238;10.394;2022-09-17T14:33:36;20.30;93.00
3310;DHT22;1667;53.238;10.394;2022-09-17T14:38:39;20.30;93.00
3310;DHT22;1667;53.238;10.394;2022-09-17T14:43:47;20.30;93.00
3310;DHT22;1667;53.238;10.394;2022-09-17T14:48:47;20.30;93.00
3310;DHT22;1667;53.238;10.394;2022-09-17T14:53:47;20.30;93.00
3310;DHT22;1667;53.238;10.394;2022-09-17T14:58:48;20.40;93.10
3310;DHT22;1667;53.238;10.394;2022-09-17T15:03:47;20.40;93.10
3310;DHT22;1667;53.238;10.394;2022-09-17T15:08:45;20.40;93.00
3310;DHT22;1667;53.238;10.394;2022-09-17T15:13:50;20.40;93.00
3310;DHT22;1667;53.238;10.394;2022-09-17T15:18:51;20.40;93.00
3310;DHT22;1667;53.238;10.394;2022-09-17T15:23:53;20.40;93.00
3310;DHT22;1667;53.238;10.394;2022-09-17T15:28:54;20.40;93.00
3310;DHT22;1667;53.238;10.394;2022-09-17T15:33:54;20.40;93.00
3310;DHT22;1667;53.238;10.394;2022-09-17T15:38:52;20.30;92.90
3310;DHT22;1667;53.238;10.394;2022-09-17T15:43:50;20.30;92.90
3310;DHT22;1667;53.238;10.394;2022-09-17T15:49:29;20.40;92.90
3310;DHT22;1667;53.238;10.394;2022-09-17T15:54:29;20.30;92.80
3310;DHT22;1667;53.238;10.394;2022-09-17T15:59:30;20.30;92.80
3310;DHT22;1667;53.238;10.394;2022-09-17T16:04:31;20.30;92.80
3310;DHT22;1667;53.238;10.394;2022-09-17T16:09:44;20.40;92.70
3310;DHT22;1667;53.238;10.394;2022-09-17T16:14:45;20.40;92.70
3310;DHT22;1667;53.238;10.394;2022-09-17T16:19:44;20.40;92.60
3310;DHT22;1667;53.238;10.394;2022-09-17T16:24:42;20.40;92.70
3310;DHT22;1667;53.238;10.394;2022-09-17T16:29:40;20.40;92.80
3310;DHT22;1667;53.238;10.394;2022-09-17T16:34:38;20.40;92.80
3310;DHT22;1667;53.238;10.394;2022-09-17T16:39:38;20.40;92.80
3310;DHT22;1667;53.238;10.394;2022-09-17T16:44:36;20.40;92.80
3310;DHT22;1667;53.238;10.394;2022-09-17T16:49:34;20.30;92.80
3310;DHT22;1667;53.238;10.394;2022-09-17T16:54:32;20.30;92.90
3310;DHT22;1667;53.238;10.394;2022-09-17T16:59:32;20.30;92.90
3310;DHT22;1667;53.238;10.394;2022-09-17T17:04:30;20.30;92.90
3310;DHT22;1667;53.238;10.394;2022-09-17T17:09:28;20.30;93.00
3310;DHT22;1667;53.238;10.394;2022-09-17T17:14:26;20.30;93.30
3310;DHT22;1667;53.238;10.394;2022-09-17T17:19:26;20.30;93.00
3310;DHT22;1667;53.238;10.394;2022-09-17T17:24:26;20.40;93.00
3310;DHT22;1667;53.238;10.394;2022-09-17T17:29:24;20.40;93.00
3310;DHT22;1667;53.238;10.394;2022-09-17T17:34:22;20.30;93.00
3310;DHT22;1667;53.238;10.394;2022-09-17T17:39:22;20.30;93.00
3310;DHT22;1667;53.238;10.394;2022-09-17T17:44:20;20.40;93.00
3310;DHT22;1667;53.238;10.394;2022-09-17T17:49:18;20.40;93.00
3310;DHT22;1667;53.238;10.394;2022-09-17T17:54:16;20.40;93.00
3310;DHT22;1667;53.238;10.394;2022-09-17T17:59:16;20.30;93.00
3310;DHT22;1667;53.238;10.394;2022-09-17T18:04:15;20.30;93.00
3310;DHT22;1667;53.238;10.394;2022-09-17T18:09:13;20.30;93.00
3310;DHT22;1667;53.238;10.394;2022-09-17T18:14:11;20.30;93.00
3310;DHT22;1667;53.238;10.394;2022-09-17T18:19:12;20.30;93.00
3310;DHT22;1667;53.238;10.394;2022-09-17T18:24:10;20.30;93.00
3310;DHT22;1667;53.238;10.394;2022-09-17T18:29:08;20.30;93.00
3310;DHT22;1667;53.238;10.394;2022-09-17T18:34:11;20.30;93.00
3310;DHT22;1667;53.238;10.394;2022-09-17T18:39:11;20.30;93.10
3310;DHT22;1667;53.238;10.394;2022-09-17T18:44:31;20.30;93.10
3310;DHT22;1667;53.238;10.394;2022-09-17T18:49:31;20.30;93.20
3310;DHT22;1667;53.238;10.394;2022-09-17T18:54:29;20.40;93.20
3310;DHT22;1667;53.238;10.394;2022-09-17T18:59:27;20.40;93.30
3310;DHT22;1667;53.238;10.394;2022-09-17T19:04:25;20.40;93.30
3310;DHT22;1667;53.238;10.394;2022-09-17T19:09:25;20.50;93.30
3310;DHT22;1667;53.238;10.394;2022-09-17T19:14:23;20.50;93.30
3310;DHT22;1667;53.238;10.394;2022-09-17T19:19:22;20.50;93.30
3310;DHT22;1667;53.238;10.394;2022-09-17T19:24:20;20.40;93.30
3310;DHT22;1667;53.238;10.394;2022-09-17T19:29:19;20.40;93.40
3310;DHT22;1667;53.238;10.394;2022-09-17T19:34:17;20.40;93.50
3310;DHT22;1667;53.238;10.394;2022-09-17T19:39:15;20.40;93.50
3310;DHT22;1667;53.238;10.394;2022-09-17T19:44:14;20.40;93.50
3310;DHT22;1667;53.238;10.394;2022-09-17T19:49:13;20.40;93.90
3310;DHT22;1667;53.238;10.394;2022-09-17T19:54:12;20.40;93.50
3310;DHT22;1667;53.238;10.394;2022-09-17T19:59:10;20.40;93.50
3310;DHT22;1667;53.238;10.394;2022-09-17T20:04:08;20.40;93.50
3310;DHT22;1667;53.238;10.394;2022-09-17T20:09:07;20.40;93.50
3310;DHT22;1667;53.238;10.394;2022-09-17T20:14:06;20.40;93.50
3310;DHT22;1667;53.238;10.394;2022-09-17T20:19:05;20.40;93.40
3310;DHT22;1667;53.238;10.394;2022-09-17T20:24:04;20.40;93.50
3310;DHT22;1667;53.238;10.394;2022-09-17T20:29:04;20.40;93.70
3310;DHT22;1667;53.238;10.394;2022-09-17T20:34:03;20.40;93.50
3310;DHT22;1667;53.238;10.394;2022-09-17T20:39:01;20.40;93.50
3310;DHT22;1667;53.238;10.394;2022-09-17T20:44:10;20.40;93.40
3310;DHT22;1667;53.238;10.394;2022-09-17T20:49:08;20.40;93.30
3310;DHT22;1667;53.238;10.394;2022-09-17T20:54:06;20.40;93.30
3310;DHT22;1667;53.238;10.394;2022-09-17T20:59:06;20.40;93.30
3310;DHT22;1667;53.238;10.394;2022-09-17T21:04:12;20.30;93.30
3310;DHT22;1667;53.238;10.394;2022-09-17T21:09:12;20.20;93.30
3310;DHT22;1667;53.238;10.394;2022-09-17T21:14:13;20.20;93.30
3310;DHT22;1667;53.238;10.394;2022-09-17T21:19:14;20.20;93.40
3310;DHT22;1667;53.238;10.394;2022-09-17T21:24:12;20.20;93.30
3310;DHT22;1667;53.238;10.394;2022-09-17T21:29:11;20.20;93.30
3310;DHT22;1667;53.238;10.394;2022-09-17T21:34:11;20.20;93.30
3310;DHT22;1667;53.238;10.394;2022-09-17T21:39:12;20.20;93.30
3310;DHT22;1667;53.238;10.394;2022-09-17T21:44:11;20.20;93.20
3310;DHT22;1667;53.238;10.394;2022-09-17T21:49:09;20.10;93.10
3310;DHT22;1667;53.238;10.394;2022-09-17T21:54:12;20.10;93.10
3310;DHT22;1667;53.238;10.394;2022-09-17T21:59:12;20.10;93.10
3310;DHT22;1667;53.238;10.394;2022-09-17T22:04:12;20.10;93.10
3310;DHT22;1667;53.238;10.394;2022-09-17T22:09:15;20.10;93.00
3310;DHT22;1667;53.238;10.394;2022-09-17T22:14:14;20.10;93.00
3310;DHT22;1667;53.238;10.394;2022-09-17T22:19:17;20.10;93.00
3310;DHT22;1667;53.238;10.394;2022-09-17T22:24:17;20.10;93.00
3310;DHT22;1667;53.238;10.394;2022-09-17T22:29:18;20.00;92.90
3310;DHT22;1667;53.238;10.394;2022-09-17T22:34:17;20.10;93.00
3310;DHT22;1667;53.238;10.394;2022-09-17T22:39:19;20.00;92.90
3310;DHT22;1667;53.238;10.394;2022-09-17T22:44:18;20.00;92.90
3310;DHT22;1667;53.238;10.394;2022-09-17T22:49:17;19.90;92.80
3310;DHT22;1667;53.238;10.394;2022-09-17T22:54:17;19.70;92.40
3310;DHT22;1667;53.238;10.394;2022-09-17T22:59:16;19.70;92.20
3310;DHT22;1667;53.238;10.394;2022-09-17T23:04:15;19.90;92.00
3310;DHT22;1667;53.238;10.394;2022-09-17T23:09:13;19.90;91.90
3310;DHT22;1667;53.238;10.394;2022-09-17T23:14:13;19.90;91.90
3310;DHT22;1667;53.238;10.394;2022-09-17T23:19:15;19.90;91.90
3310;DHT22;1667;53.238;10.394;2022-09-17T23:24:16;19.80;92.00
3310;DHT22;1667;53.238;10.394;2022-09-17T23:29:17;19.80;92.00
3310;DHT22;1667;53.238;10.394;2022-09-17T23:34:15;19.80;92.10
3310;DHT22;1667;53.238;10.394;2022-09-17T23:39:13;19.80;92.10
3310;DHT22;1667;53.238;10.394;2022-09-17T23:44:11;19.80;92.10
3310;DHT22;1667;53.238;10.394;2022-09-17T23:49:13;19.80;92.20
3310;DHT22;1667;53.238;10.394;2022-09-17T23:54:11;19.80;92.10
3310;DHT22;1667;53.238;10.394;2022-09-17T23:59:10;19.80;92.20
